sensor_id;sensor_type;location;lat;lon;timestamp;pressure;altitude;pressure_sealevel;temperature;humidity
62942;BME280;49042;47.318;19.874;2023-02-19T00:02:28;100422.12;;;8.70;90.44
62942;BME280;49042;47.318;19.874;2023-02-19T00:05:29;100420.37;;;8.69;90.33
62942;BME280;49042;47.318;19.874;2023-02-19T00:08:32;100429.44;;;8.57;90.92
62942;BME280;49042;47.318;19.874;2023-02-19T00:11:34;100423.44;;;8.59;90.64
62942;BME280;49042;47.318;19.874;2023-02-19T00:14:36;100416.50;;;8.59;90.17
62942;BME280;49042;47.318;19.874;2023-02-19T00:17:38;100422.47;;;8.56;90.07
62942;BME280;49042;47.318;19.874;2023-02-19T00:20:39;100430.34;;;8.58;89.60
62942;BME280;49042;47.318;19.874;2023-02-19T00:23:41;100435.69;;;8.61;88.96
62942;BME280;49042;47.318;19.874;2023-02-19T00:26:44;100444.31;;;8.60;88.67
62942;BME280;49042;47.318;19.874;2023-02-19T00:29:46;100441.00;;;8.64;88.05
62942;BME280;49042;47.318;19.874;2023-02-19T00:32:50;100443.16;;;8.76;86.95
62942;BME280;49042;47.318;19.874;2023-02-19T00:35:52;100444.56;;;8.89;85.91
62942;BME280;49042;47.318;19.874;2023-02-19T00:38:54;100455.97;;;8.93;85.47
62942;BME280;49042;47.318;19.874;2023-02-19T00:41:55;100451.25;;;8.83;85.73
62942;BME280;49042;47.318;19.874;2023-02-19T00:44:57;100466.09;;;8.87;85.24
62942;BME280;49042;47.318;19.874;2023-02-19T00:47:59;100459.09;;;9.07;83.71
62942;BME280;49042;47.318;19.874;2023-02-19T00:51:00;100473.81;;;9.07;83.55
62942;BME280;49042;47.318;19.874;2023-02-19T00:54:03;100469.50;;;9.07;84.78
62942;BME280;49042;47.318;19.874;2023-02-19T00:57:05;100473.88;;;9.33;84.02
62942;BME280;49042;47.318;19.874;2023-02-19T01:00:07;100473.38;;;9.43;83.03
62942;BME280;49042;47.318;19.874;2023-02-19T01:03:09;100481.84;;;9.13;82.57
62942;BME280;49042;47.318;19.874;2023-02-19T01:06:13;100472.69;;;9.00;83.16
62942;BME280;49042;47.318;19.874;2023-02-19T01:09:15;100472.03;;;8.83;84.01
62942;BME280;49042;47.318;19.874;2023-02-19T01:12:16;100467.44;;;8.75;84.30
62942;BME280;49042;47.318;19.874;2023-02-19T01:15:18;100457.31;;;8.83;83.83
62942;BME280;49042;47.318;19.874;2023-02-19T01:18:20;100462.81;;;8.91;83.26
62942;BME280;49042;47.318;19.874;2023-02-19T01:21:23;100460.47;;;8.97;82.75
62942;BME280;49042;47.318;19.874;2023-02-19T01:24:26;100454.59;;;9.03;82.31
62942;BME280;49042;47.318;19.874;2023-02-19T01:27:27;100452.03;;;9.05;81.99
62942;BME280;49042;47.318;19.874;2023-02-19T01:30:29;100454.37;;;8.97;82.28
62942;BME280;49042;47.318;19.874;2023-02-19T01:33:32;100442.53;;;8.82;83.01
62942;BME280;49042;47.318;19.874;2023-02-19T01:36:33;100455.91;;;8.69;83.71
62942;BME280;49042;47.318;19.874;2023-02-19T01:39:35;100451.06;;;8.56;84.43
62942;BME280;49042;47.318;19.874;2023-02-19T01:42:41;100456.03;;;8.50;84.75
62942;BME280;49042;47.318;19.874;2023-02-19T01:45:44;100452.03;;;8.59;84.36
62942;BME280;49042;47.318;19.874;2023-02-19T01:48:46;100452.53;;;8.50;84.95
62942;BME280;49042;47.318;19.874;2023-02-19T01:51:52;100455.13;;;8.50;84.79
62942;BME280;49042;47.318;19.874;2023-02-19T01:54:57;100448.53;;;8.58;84.15
62942;BME280;49042;47.318;19.874;2023-02-19T01:58:01;100449.56;;;8.62;83.89
62942;BME280;49042;47.318;19.874;2023-02-19T02:01:06;100449.44;;;8.59;83.98
62942;BME280;49042;47.318;19.874;2023-02-19T02:04:11;100452.19;;;8.62;83.62
62942;BME280;49042;47.318;19.874;2023-02-19T02:07:13;100459.28;;;8.44;84.49
62942;BME280;49042;47.318;19.874;2023-02-19T02:10:34;100458.44;;;8.24;85.78
62942;BME280;49042;47.318;19.874;2023-02-19T02:13:36;100450.34;;;8.16;86.26
62942;BME280;49042;47.318;19.874;2023-02-19T02:16:46;100449.12;;;8.08;86.62
62942;BME280;49042;47.318;19.874;2023-02-19T02:23:24;100434.50;;;8.10;86.54
62942;BME280;49042;47.318;19.874;2023-02-19T02:34:14;100440.91;;;7.97;86.77
62942;BME280;49042;47.318;19.874;2023-02-19T02:36:46;100426.97;;;7.95;87.22
62942;BME280;49042;47.318;19.874;2023-02-19T02:39:51;100428.28;;;7.85;87.51
62942;BME280;49042;47.318;19.874;2023-02-19T02:42:56;100441.50;;;7.69;88.30
62942;BME280;49042;47.318;19.874;2023-02-19T02:45:58;100439.53;;;7.64;88.62
62942;BME280;49042;47.318;19.874;2023-02-19T02:49:16;100435.59;;;7.12;91.76
62942;BME280;49042;47.318;19.874;2023-02-19T02:52:20;100448.06;;;7.01;91.22
62942;BME280;49042;47.318;19.874;2023-02-19T02:55:43;100453.34;;;6.46;92.93
62942;BME280;49042;47.318;19.874;2023-02-19T02:58:48;100452.00;;;6.01;96.03
62942;BME280;49042;47.318;19.874;2023-02-19T03:01:58;100446.94;;;5.86;97.97
62942;BME280;49042;47.318;19.874;2023-02-19T03:05:18;100457.22;;;5.84;97.96
62942;BME280;49042;47.318;19.874;2023-02-19T03:11:51;100451.97;;;5.83;99.17
62942;BME280;49042;47.318;19.874;2023-02-19T03:15:13;100446.06;;;5.85;98.98
62942;BME280;49042;47.318;19.874;2023-02-19T03:18:36;100453.78;;;6.02;97.89
62942;BME280;49042;47.318;19.874;2023-02-19T03:22:05;100443.78;;;6.27;95.35
62942;BME280;49042;47.318;19.874;2023-02-19T03:25:21;100438.47;;;6.07;96.40
62942;BME280;49042;47.318;19.874;2023-02-19T03:28:44;100445.03;;;6.17;94.99
62942;BME280;49042;47.318;19.874;2023-02-19T03:32:34;100454.09;;;6.08;95.61
62942;BME280;49042;47.318;19.874;2023-02-19T03:35:57;100452.53;;;5.77;97.47
62942;BME280;49042;47.318;19.874;2023-02-19T03:39:06;100457.72;;;5.77;98.16
62942;BME280;49042;47.318;19.874;2023-02-19T03:42:13;100461.78;;;5.55;100.00
62942;BME280;49042;47.318;19.874;2023-02-19T03:45:38;100465.50;;;5.60;100.00
62942;BME280;49042;47.318;19.874;2023-02-19T03:48:54;100469.44;;;5.70;100.00
62942;BME280;49042;47.318;19.874;2023-02-19T03:52:06;100467.19;;;5.60;100.00
62942;BME280;49042;47.318;19.874;2023-02-19T03:58:26;100452.47;;;5.75;100.00
62942;BME280;49042;47.318;19.874;2023-02-19T04:01:34;100446.38;;;5.92;100.00
62942;BME280;49042;47.318;19.874;2023-02-19T04:04:42;100438.34;;;6.04;100.00
62942;BME280;49042;47.318;19.874;2023-02-19T04:07:49;100442.06;;;6.09;100.00
62942;BME280;49042;47.318;19.874;2023-02-19T04:10:53;100436.59;;;6.21;100.00
62942;BME280;49042;47.318;19.874;2023-02-19T04:14:02;100425.66;;;6.45;100.00
62942;BME280;49042;47.318;19.874;2023-02-19T04:17:16;100442.12;;;6.47;100.00
62942;BME280;49042;47.318;19.874;2023-02-19T04:20:22;100453.31;;;6.64;100.00
62942;BME280;49042;47.318;19.874;2023-02-19T04:23:27;100446.22;;;6.60;99.84
62942;BME280;49042;47.318;19.874;2023-02-19T04:26:31;100444.44;;;6.59;100.00
62942;BME280;49042;47.318;19.874;2023-02-19T04:29:34;100440.44;;;6.66;99.87
62942;BME280;49042;47.318;19.874;2023-02-19T04:32:38;100443.41;;;6.74;99.14
62942;BME280;49042;47.318;19.874;2023-02-19T04:35:40;100449.84;;;6.64;99.58
62942;BME280;49042;47.318;19.874;2023-02-19T04:38:42;100446.16;;;6.97;97.99
62942;BME280;49042;47.318;19.874;2023-02-19T04:41:43;100447.97;;;6.80;98.75
62942;BME280;49042;47.318;19.874;2023-02-19T04:44:45;100442.72;;;6.78;98.73
62942;BME280;49042;47.318;19.874;2023-02-19T04:47:47;100436.75;;;6.99;98.12
62942;BME280;49042;47.318;19.874;2023-02-19T04:50:48;100440.47;;;6.86;97.79
62942;BME280;49042;47.318;19.874;2023-02-19T04:53:50;100446.19;;;6.79;98.50
62942;BME280;49042;47.318;19.874;2023-02-19T04:56:52;100447.47;;;6.69;99.21
62942;BME280;49042;47.318;19.874;2023-02-19T04:59:53;100455.22;;;6.87;98.68
62942;BME280;49042;47.318;19.874;2023-02-19T05:02:55;100446.78;;;6.73;99.67
62942;BME280;49042;47.318;19.874;2023-02-19T05:06:01;100452.34;;;6.81;99.57
62942;BME280;49042;47.318;19.874;2023-02-19T05:09:03;100460.28;;;6.47;100.00
62942;BME280;49042;47.318;19.874;2023-02-19T05:12:04;100466.63;;;6.54;100.00
62942;BME280;49042;47.318;19.874;2023-02-19T05:15:06;100460.41;;;6.50;100.00
62942;BME280;49042;47.318;19.874;2023-02-19T05:18:08;100464.44;;;6.62;100.00
62942;BME280;49042;47.318;19.874;2023-02-19T05:21:10;100460.28;;;6.47;100.00
62942;BME280;49042;47.318;19.874;2023-02-19T05:24:13;100458.66;;;6.49;100.00
62942;BME280;49042;47.318;19.874;2023-02-19T05:27:15;100444.31;;;6.56;100.00
62942;BME280;49042;47.318;19.874;2023-02-19T05:30:16;100445.09;;;6.18;100.00
62942;BME280;49042;47.318;19.874;2023-02-19T05:33:22;100436.28;;;6.51;100.00
62942;BME280;49042;47.318;19.874;2023-02-19T05:36:24;100451.41;;;6.42;100.00
62942;BME280;49042;47.318;19.874;2023-02-19T05:39:25;100455.84;;;6.45;100.00
62942;BME280;49042;47.318;19.874;2023-02-19T05:42:27;100457.81;;;6.50;100.00
62942;BME280;49042;47.318;19.874;2023-02-19T05:45:29;100455.22;;;6.69;100.00
62942;BME280;49042;47.318;19.874;2023-02-19T05:48:32;100461.72;;;6.79;100.00
62942;BME280;49042;47.318;19.874;2023-02-19T05:51:34;100456.38;;;6.94;100.00
62942;BME280;49042;47.318;19.874;2023-02-19T05:54:35;100458.94;;;7.12;100.00
62942;BME280;49042;47.318;19.874;2023-02-19T05:57:41;100464.81;;;7.28;100.00
62942;BME280;49042;47.318;19.874;2023-02-19T06:00:44;100455.88;;;7.41;100.00
62942;BME280;49042;47.318;19.874;2023-02-19T06:03:46;100453.97;;;7.37;100.00
62942;BME280;49042;47.318;19.874;2023-02-19T06:06:48;100458.41;;;7.39;100.00
62942;BME280;49042;47.318;19.874;2023-02-19T06:09:49;100459.38;;;7.42;100.00
62942;BME280;49042;47.318;19.874;2023-02-19T06:12:52;100452.44;;;7.42;100.00
62942;BME280;49042;47.318;19.874;2023-02-19T06:15:54;100454.84;;;7.37;100.00
62942;BME280;49042;47.318;19.874;2023-02-19T06:18:55;100463.59;;;7.39;100.00
62942;BME280;49042;47.318;19.874;2023-02-19T06:21:57;100458.66;;;7.46;100.00
62942;BME280;49042;47.318;19.874;2023-02-19T06:24:59;100465.59;;;7.45;100.00
62942;BME280;49042;47.318;19.874;2023-02-19T06:28:00;100465.59;;;7.45;100.00
62942;BME280;49042;47.318;19.874;2023-02-19T06:31:03;100482.31;;;7.52;100.00
62942;BME280;49042;47.318;19.874;2023-02-19T06:34:05;100481.59;;;7.56;100.00
62942;BME280;49042;47.318;19.874;2023-02-19T06:37:07;100473.81;;;7.56;100.00
62942;BME280;49042;47.318;19.874;2023-02-19T06:40:09;100479.44;;;7.66;100.00
62942;BME280;49042;47.318;19.874;2023-02-19T06:43:11;100480.75;;;7.56;100.00
62942;BME280;49042;47.318;19.874;2023-02-19T06:46:13;100476.91;;;7.47;100.00
62942;BME280;49042;47.318;19.874;2023-02-19T06:49:15;100486.41;;;7.47;100.00
62942;BME280;49042;47.318;19.874;2023-02-19T06:52:17;100476.22;;;7.32;100.00
62942;BME280;49042;47.318;19.874;2023-02-19T06:55:18;100466.94;;;7.37;100.00
62942;BME280;49042;47.318;19.874;2023-02-19T06:58:20;100461.66;;;7.35;100.00
62942;BME280;49042;47.318;19.874;2023-02-19T07:01:23;100441.44;;;7.28;100.00
62942;BME280;49042;47.318;19.874;2023-02-19T07:04:24;100450.09;;;7.27;100.00
62942;BME280;49042;47.318;19.874;2023-02-19T07:07:26;100446.72;;;7.30;100.00
62942;BME280;49042;47.318;19.874;2023-02-19T07:10:28;100453.63;;;7.29;100.00
62942;BME280;49042;47.318;19.874;2023-02-19T07:13:29;100442.66;;;7.35;100.00
62942;BME280;49042;47.318;19.874;2023-02-19T07:16:31;100444.75;;;7.24;100.00
62942;BME280;49042;47.318;19.874;2023-02-19T07:19:33;100446.31;;;7.20;100.00
62942;BME280;49042;47.318;19.874;2023-02-19T07:22:35;100451.69;;;7.25;100.00
62942;BME280;49042;47.318;19.874;2023-02-19T07:25:37;100444.75;;;7.24;100.00
62942;BME280;49042;47.318;19.874;2023-02-19T07:28:40;100448.25;;;7.24;100.00
62942;BME280;49042;47.318;19.874;2023-02-19T07:31:42;100445.66;;;7.24;100.00
62942;BME280;49042;47.318;19.874;2023-02-19T07:34:43;100445.78;;;7.27;100.00
62942;BME280;49042;47.318;19.874;2023-02-19T07:37:45;100455.28;;;7.27;100.00
62942;BME280;49042;47.318;19.874;2023-02-19T07:40:54;100462.38;;;7.31;100.00
62942;BME280;49042;47.318;19.874;2023-02-19T07:43:56;100455.13;;;7.24;100.00
62942;BME280;49042;47.318;19.874;2023-02-19T07:46:58;100460.25;;;7.22;100.00
62942;BME280;49042;47.318;19.874;2023-02-19T07:50:00;100443.38;;;7.32;100.00
62942;BME280;49042;47.318;19.874;2023-02-19T07:53:01;100441.00;;;7.17;100.00
62942;BME280;49042;47.318;19.874;2023-02-19T07:56:05;100448.69;;;7.15;100.00
62942;BME280;49042;47.318;19.874;2023-02-19T07:59:07;100436.87;;;7.42;100.00
62942;BME280;49042;47.318;19.874;2023-02-19T08:02:19;100432.72;;;7.26;100.00
62942;BME280;49042;47.318;19.874;2023-02-19T08:05:40;100435.00;;;7.38;100.00
62942;BME280;49042;47.318;19.874;2023-02-19T08:08:42;100420.16;;;7.35;100.00
62942;BME280;49042;47.318;19.874;2023-02-19T08:11:44;100408.50;;;7.45;100.00
62942;BME280;49042;47.318;19.874;2023-02-19T08:15:04;100408.84;;;7.75;100.00
62942;BME280;49042;47.318;19.874;2023-02-19T08:18:07;100412.41;;;7.57;100.00
62942;BME280;49042;47.318;19.874;2023-02-19T08:21:09;100410.37;;;7.49;100.00
62942;BME280;49042;47.318;19.874;2023-02-19T08:24:11;100411.56;;;7.78;100.00
62942;BME280;49042;47.318;19.874;2023-02-19T08:27:13;100417.75;;;7.81;100.00
62942;BME280;49042;47.318;19.874;2023-02-19T08:30:14;100424.81;;;7.84;100.00
62942;BME280;49042;47.318;19.874;2023-02-19T08:33:19;100445.03;;;7.91;100.00
62942;BME280;49042;47.318;19.874;2023-02-19T08:36:21;100437.53;;;7.99;99.48
62942;BME280;49042;47.318;19.874;2023-02-19T08:39:23;100437.22;;;8.13;98.59
62942;BME280;49042;47.318;19.874;2023-02-19T08:42:24;100440.37;;;8.27;98.19
62942;BME280;49042;47.318;19.874;2023-02-19T08:45:26;100433.66;;;8.32;98.06
62942;BME280;49042;47.318;19.874;2023-02-19T08:48:28;100436.94;;;8.50;97.21
62942;BME280;49042;47.318;19.874;2023-02-19T08:51:29;100440.22;;;8.67;96.90
62942;BME280;49042;47.318;19.874;2023-02-19T08:54:31;100443.16;;;8.76;95.82
62942;BME280;49042;47.318;19.874;2023-02-19T08:57:35;100450.28;;;8.81;96.59
62942;BME280;49042;47.318;19.874;2023-02-19T09:00:40;100449.75;;;8.89;96.91
62942;BME280;49042;47.318;19.874;2023-02-19T09:03:42;100445.78;;;8.99;96.87
62942;BME280;49042;47.318;19.874;2023-02-19T09:06:44;100450.75;;;8.93;97.49
62942;BME280;49042;47.318;19.874;2023-02-19T09:09:45;100454.50;;;9.02;98.11
62942;BME280;49042;47.318;19.874;2023-02-19T09:12:47;100455.84;;;8.90;98.82
62942;BME280;49042;47.318;19.874;2023-02-19T09:15:49;100446.56;;;8.97;100.00
62942;BME280;49042;47.318;19.874;2023-02-19T09:18:51;100451.50;;;9.14;100.00
62942;BME280;49042;47.318;19.874;2023-02-19T09:21:52;100451.31;;;9.09;100.00
62942;BME280;49042;47.318;19.874;2023-02-19T09:24:54;100443.63;;;9.12;100.00
62942;BME280;49042;47.318;19.874;2023-02-19T09:27:56;100438.88;;;9.25;100.00
62942;BME280;49042;47.318;19.874;2023-02-19T09:31:06;100424.38;;;9.31;100.00
62942;BME280;49042;47.318;19.874;2023-02-19T09:34:09;100429.59;;;9.31;100.00
62942;BME280;49042;47.318;19.874;2023-02-19T09:37:12;100438.59;;;9.41;100.00
62942;BME280;49042;47.318;19.874;2023-02-19T09:40:14;100430.63;;;9.12;100.00
62942;BME280;49042;47.318;19.874;2023-02-19T09:43:23;100431.72;;;9.19;100.00
62942;BME280;49042;47.318;19.874;2023-02-19T09:49:35;100427.34;;;8.93;100.00
62942;BME280;49042;47.318;19.874;2023-02-19T09:55:43;100423.44;;;8.59;100.00
62942;BME280;49042;47.318;19.874;2023-02-19T09:58:48;100432.28;;;8.41;100.00
62942;BME280;49042;47.318;19.874;2023-02-19T10:02:00;100416.50;;;8.36;100.00
62942;BME280;49042;47.318;19.874;2023-02-19T10:05:11;100420.44;;;8.26;100.00
62942;BME280;49042;47.318;19.874;2023-02-19T10:08:18;100427.22;;;8.22;100.00
62942;BME280;49042;47.318;19.874;2023-02-19T10:11:21;100426.38;;;8.23;100.00
62942;BME280;49042;47.318;19.874;2023-02-19T10:14:53;100429.59;;;8.39;100.00
62942;BME280;49042;47.318;19.874;2023-02-19T10:18:02;100422.56;;;8.60;100.00
62942;BME280;49042;47.318;19.874;2023-02-19T10:21:05;100414.62;;;8.55;100.00
62942;BME280;49042;47.318;19.874;2023-02-19T10:24:07;100411.75;;;8.70;100.00
62942;BME280;49042;47.318;19.874;2023-02-19T10:27:15;100409.75;;;9.10;100.00
62942;BME280;49042;47.318;19.874;2023-02-19T10:30:23;100390.13;;;10.25;100.00
62942;BME280;49042;47.318;19.874;2023-02-19T10:33:26;100395.59;;;10.92;100.00
62942;BME280;49042;47.318;19.874;2023-02-19T10:36:35;100381.19;;;11.05;100.00
62942;BME280;49042;47.318;19.874;2023-02-19T10:39:41;100364.28;;;11.24;100.00
62942;BME280;49042;47.318;19.874;2023-02-19T10:42:45;100351.12;;;11.20;100.00
62942;BME280;49042;47.318;19.874;2023-02-19T10:45:48;100355.16;;;11.08;100.00
62942;BME280;49042;47.318;19.874;2023-02-19T10:48:54;100334.84;;;11.64;100.00
62942;BME280;49042;47.318;19.874;2023-02-19T10:55:30;100329.25;;;12.63;94.66
62942;BME280;49042;47.318;19.874;2023-02-19T10:58:32;100320.84;;;13.27;90.47
62942;BME280;49042;47.318;19.874;2023-02-19T11:01:59;100312.78;;;13.16;88.62
62942;BME280;49042;47.318;19.874;2023-02-19T11:08:20;100305.72;;;13.10;87.13
62942;BME280;49042;47.318;19.874;2023-02-19T11:11:34;100303.34;;;13.24;85.05
62942;BME280;49042;47.318;19.874;2023-02-19T11:14:41;100305.47;;;12.52;86.47
62942;BME280;49042;47.318;19.874;2023-02-19T11:17:43;100297.44;;;12.43;87.32
62942;BME280;49042;47.318;19.874;2023-02-19T11:20:52;100304.34;;;12.41;88.12
62942;BME280;49042;47.318;19.874;2023-02-19T11:24:01;100299.47;;;12.16;88.39
62942;BME280;49042;47.318;19.874;2023-02-19T11:27:12;100290.38;;;12.40;88.79
62942;BME280;49042;47.318;19.874;2023-02-19T11:33:42;100288.66;;;12.02;88.68
62942;BME280;49042;47.318;19.874;2023-02-19T11:36:45;100286.56;;;12.24;88.57
62942;BME280;49042;47.318;19.874;2023-02-19T11:39:49;100274.25;;;12.62;87.04
62942;BME280;49042;47.318;19.874;2023-02-19T11:43:46;100273.31;;;12.58;84.27
62942;BME280;49042;47.318;19.874;2023-02-19T11:50:07;100242.88;;;13.10;81.72
62942;BME280;49042;47.318;19.874;2023-02-19T11:53:26;100234.44;;;13.28;80.16
62942;BME280;49042;47.318;19.874;2023-02-19T11:56:36;100232.63;;;13.24;78.60
62942;BME280;49042;47.318;19.874;2023-02-19T12:00:02;100230.47;;;13.00;76.73
62942;BME280;49042;47.318;19.874;2023-02-19T12:07:22;100219.97;;;13.53;75.48
62942;BME280;49042;47.318;19.874;2023-02-19T12:20:40;100199.81;;;14.11;68.64
62942;BME280;49042;47.318;19.874;2023-02-19T12:37:43;100179.87;;;14.26;67.21
62942;BME280;49042;47.318;19.874;2023-02-19T12:41:00;100178.91;;;14.19;63.41
62942;BME280;49042;47.318;19.874;2023-02-19T12:44:21;100156.13;;;14.15;58.98
62942;BME280;49042;47.318;19.874;2023-02-19T12:47:32;100159.88;;;14.35;56.61
62942;BME280;49042;47.318;19.874;2023-02-19T12:50:38;100157.34;;;14.45;56.96
62942;BME280;49042;47.318;19.874;2023-02-19T12:53:47;100161.81;;;14.57;55.65
62942;BME280;49042;47.318;19.874;2023-02-19T13:00:28;100166.13;;;14.49;56.37
62942;BME280;49042;47.318;19.874;2023-02-19T13:04:01;100141.69;;;14.56;54.40
62942;BME280;49042;47.318;19.874;2023-02-19T13:07:12;100154.75;;;14.50;54.90
62942;BME280;49042;47.318;19.874;2023-02-19T13:10:35;100161.09;;;14.71;54.89
62942;BME280;49042;47.318;19.874;2023-02-19T13:13:57;100138.16;;;14.51;54.15
62942;BME280;49042;47.318;19.874;2023-02-19T13:17:07;100146.09;;;14.57;53.88
62942;BME280;49042;47.318;19.874;2023-02-19T13:20:19;100155.22;;;14.98;53.95
62942;BME280;49042;47.318;19.874;2023-02-19T13:23:27;100150.03;;;15.02;52.83
62942;BME280;49042;47.318;19.874;2023-02-19T13:27:40;100154.69;;;15.45;52.34
62942;BME280;49042;47.318;19.874;2023-02-19T13:30:34;100153.91;;;15.63;51.83
62942;BME280;49042;47.318;19.874;2023-02-19T13:36:48;100144.63;;;14.87;52.74
62942;BME280;49042;47.318;19.874;2023-02-19T13:39:52;100164.38;;;14.48;54.72
62942;BME280;49042;47.318;19.874;2023-02-19T13:43:00;100160.94;;;13.77;63.41
62942;BME280;49042;47.318;19.874;2023-02-19T13:46:10;100160.28;;;13.31;63.48
62942;BME280;49042;47.318;19.874;2023-02-19T13:52:38;100156.06;;;13.43;60.01
62942;BME280;49042;47.318;19.874;2023-02-19T13:58:56;100148.38;;;14.22;56.07
62942;BME280;49042;47.318;19.874;2023-02-19T14:05:12;100141.91;;;14.78;53.00
62942;BME280;49042;47.318;19.874;2023-02-19T14:14:54;100149.84;;;16.52;49.07
62942;BME280;49042;47.318;19.874;2023-02-19T14:17:56;100153.16;;;15.94;51.15
62942;BME280;49042;47.318;19.874;2023-02-19T14:21:17;100164.66;;;16.09;50.79
62942;BME280;49042;47.318;19.874;2023-02-19T14:24:23;100163.31;;;14.31;57.29
62942;BME280;49042;47.318;19.874;2023-02-19T14:27:26;100165.28;;;13.17;61.94
62942;BME280;49042;47.318;19.874;2023-02-19T14:30:30;100164.38;;;12.62;65.47
62942;BME280;49042;47.318;19.874;2023-02-19T14:33:36;100175.03;;;12.25;67.14
62942;BME280;49042;47.318;19.874;2023-02-19T14:39:51;100193.56;;;11.95;67.98
62942;BME280;49042;47.318;19.874;2023-02-19T14:42:56;100199.78;;;12.02;67.63
62942;BME280;49042;47.318;19.874;2023-02-19T14:46:21;100206.66;;;11.97;68.50
62942;BME280;49042;47.318;19.874;2023-02-19T14:52:54;100206.00;;;11.67;73.05
62942;BME280;49042;47.318;19.874;2023-02-19T14:55:59;100207.41;;;11.52;75.01
62942;BME280;49042;47.318;19.874;2023-02-19T14:59:28;100210.66;;;11.42;76.13
62942;BME280;49042;47.318;19.874;2023-02-19T15:02:31;100216.69;;;11.38;75.29
62942;BME280;49042;47.318;19.874;2023-02-19T15:05:36;100223.47;;;11.31;75.49
62942;BME280;49042;47.318;19.874;2023-02-19T15:08:42;100222.44;;;11.24;76.26
62942;BME280;49042;47.318;19.874;2023-02-19T15:11:45;100240.59;;;11.19;76.81
62942;BME280;49042;47.318;19.874;2023-02-19T15:14:50;100238.19;;;11.27;76.61
62942;BME280;49042;47.318;19.874;2023-02-19T15:17:55;100251.19;;;11.61;71.88
62942;BME280;49042;47.318;19.874;2023-02-19T15:21:01;100259.31;;;11.38;67.82
62942;BME280;49042;47.318;19.874;2023-02-19T15:24:05;100270.56;;;11.34;66.41
62942;BME280;49042;47.318;19.874;2023-02-19T15:27:16;100280.22;;;11.38;65.98
62942;BME280;49042;47.318;19.874;2023-02-19T15:30:28;100281.16;;;11.40;71.03
62942;BME280;49042;47.318;19.874;2023-02-19T15:33:31;100292.50;;;11.42;72.35
62942;BME280;49042;47.318;19.874;2023-02-19T15:36:35;100311.81;;;11.48;71.16
62942;BME280;49042;47.318;19.874;2023-02-19T15:39:42;100304.84;;;11.48;67.67
62942;BME280;49042;47.318;19.874;2023-02-19T15:42:46;100312.41;;;11.37;65.89
62942;BME280;49042;47.318;19.874;2023-02-19T15:45:51;100302.25;;;11.14;69.27
62942;BME280;49042;47.318;19.874;2023-02-19T15:49:16;100302.69;;;10.97;68.75
62942;BME280;49042;47.318;19.874;2023-02-19T15:52:28;100308.31;;;10.80;68.64
62942;BME280;49042;47.318;19.874;2023-02-19T15:58:55;100318.97;;;10.57;68.87
62942;BME280;49042;47.318;19.874;2023-02-19T16:02:00;100319.59;;;10.50;69.42
62942;BME280;49042;47.318;19.874;2023-02-19T16:05:23;100322.59;;;10.33;70.54
62942;BME280;49042;47.318;19.874;2023-02-19T16:08:34;100334.72;;;10.33;70.96
62942;BME280;49042;47.318;19.874;2023-02-19T16:11:44;100329.91;;;10.16;72.51
62942;BME280;49042;47.318;19.874;2023-02-19T16:14:49;100332.13;;;10.03;74.00
62942;BME280;49042;47.318;19.874;2023-02-19T16:17:55;100325.34;;;9.81;75.84
62942;BME280;49042;47.318;19.874;2023-02-19T16:21:00;100319.97;;;9.76;76.21
62942;BME280;49042;47.318;19.874;2023-02-19T16:24:25;100317.06;;;9.67;77.28
62942;BME280;49042;47.318;19.874;2023-02-19T16:27:40;100326.59;;;9.66;77.62
62942;BME280;49042;47.318;19.874;2023-02-19T16:30:43;100321.28;;;9.63;78.22
62942;BME280;49042;47.318;19.874;2023-02-19T16:33:47;100326.88;;;9.48;79.76
62942;BME280;49042;47.318;19.874;2023-02-19T16:36:50;100322.44;;;9.45;80.30
62942;BME280;49042;47.318;19.874;2023-02-19T16:40:36;100329.78;;;9.31;81.56
62942;BME280;49042;47.318;19.874;2023-02-19T16:43:40;100324.84;;;9.39;81.36
62942;BME280;49042;47.318;19.874;2023-02-19T16:46:43;100335.16;;;9.36;82.07
62942;BME280;49042;47.318;19.874;2023-02-19T16:49:46;100342.69;;;9.28;82.49
62942;BME280;49042;47.318;19.874;2023-02-19T16:52:50;100346.13;;;9.27;83.05
62942;BME280;49042;47.318;19.874;2023-02-19T16:55:55;100349.41;;;9.21;83.40
62942;BME280;49042;47.318;19.874;2023-02-19T16:58:57;100363.97;;;9.16;83.91
62942;BME280;49042;47.318;19.874;2023-02-19T17:02:03;100368.12;;;9.10;84.31
62942;BME280;49042;47.318;19.874;2023-02-19T17:05:08;100368.16;;;9.12;84.49
62942;BME280;49042;47.318;19.874;2023-02-19T17:08:39;100376.44;;;9.00;85.29
62942;BME280;49042;47.318;19.874;2023-02-19T17:11:43;100383.25;;;8.96;86.22
62942;BME280;49042;47.318;19.874;2023-02-19T17:14:46;100381.53;;;8.97;86.03
62942;BME280;49042;47.318;19.874;2023-02-19T17:17:49;100372.66;;;8.92;86.39
62942;BME280;49042;47.318;19.874;2023-02-19T17:21:16;100362.06;;;8.87;86.87
62942;BME280;49042;47.318;19.874;2023-02-19T17:24:21;100374.31;;;8.89;87.01
62942;BME280;49042;47.318;19.874;2023-02-19T17:27:25;100374.16;;;8.85;87.75
62942;BME280;49042;47.318;19.874;2023-02-19T17:30:30;100387.84;;;8.81;88.34
62942;BME280;49042;47.318;19.874;2023-02-19T17:33:33;100389.84;;;8.88;88.03
62942;BME280;49042;47.318;19.874;2023-02-19T17:36:35;100390.06;;;8.94;87.36
62942;BME280;49042;47.318;19.874;2023-02-19T17:39:40;100407.28;;;8.91;87.50
62942;BME280;49042;47.318;19.874;2023-02-19T17:42:42;100401.16;;;8.88;87.58
62942;BME280;49042;47.318;19.874;2023-02-19T17:45:47;100408.78;;;8.84;87.70